Time;durP1;ratioP1;P1;durP2;ratioP2;P2;SDS_P1;SDS_P2;PMS_P1;PMS_P2;Temp;Humidity;BMP_temperature;BMP_pressure;BME280_temperature;BME280_humidity;BME280_pressure;Samples;Min_cycle;Max_cycle;Signal;HPM_P1;HPM_P2
2021/09/15 00:00:48;;;;;;;;;;;;;;;;;;2097856;28;1016;-74
2021/09/15 00:01:49;;;;;;;;;;;;;;;;;;2097013;28;1043;-74
2021/09/15 00:02:50;;;;;;;;;;;;;;;;;;2096437;28;3994;-74
2021/09/15 00:03:50;;;;;;;;;;;;;;;;;;2094275;28;4440;-75
2021/09/15 00:04:52;;;;;;;;;;;;;;;;;;2090034;28;2109;-74
2021/09/15 00:05:52;;;;;;;;;;;;;;;;;;2092312;28;4057;-75
2021/09/15 00:06:53;;;;;;;;;;;;;;;;;;2097598;28;1095;-74
2021/09/15 00:07:53;;;;;;;;;;;;;;;;;;2097995;28;1449;-74
2021/09/15 00:08:54;;;;;;;;;;;;;;;;;;2097585;28;4074;-74
2021/09/15 00:09:54;;;;;;;;;;;;;;;;;;2098742;28;1042;-74
2021/09/15 00:10:55;;;;;;;;;;;;;;;;;;2097064;28;3893;-74
2021/09/15 00:11:55;;;;;;;;;;;;;;;;;;2093883;28;3867;-74
2021/09/15 00:12:56;;;;;;;;;;;;;;;;;;2096836;28;3853;-74
2021/09/15 00:13:57;;;;;;;;;;;;;;;;;;2097833;28;1099;-74
2021/09/15 00:14:58;;;;;;;;;;;;;;;;;;2095544;28;2214;-74
2021/09/15 00:15:58;;;;;;;;;;;;;;;;;;2097384;28;4189;-74
2021/09/15 00:16:59;;;;;;;;;;;;;;;;;;2097710;28;1072;-74
2021/09/15 00:17:59;;;;;;;;;;;;;;;;;;2099409;28;1097;-74
2021/09/15 00:19:00;;;;;;;;;;;;;;;;;;2097946;28;3795;-75
2021/09/15 00:20:00;;;;;;;;;;;;;;;;;;2097278;28;4897;-74
2021/09/15 00:21:01;;;;;;;;;;;;;;;;;;2098682;28;1158;-74
2021/09/15 00:22:01;;;;;;;;;;;;;;;;;;2100227;28;1096;-74
2021/09/15 00:23:03;;;;;;;;;;;;;;;;;;2098453;28;4008;-75
2021/09/15 00:24:03;;;;;;;;;;;;;;;;;;2097679;28;1174;-74
2021/09/15 00:25:04;;;;;;;;;;;;;;;;;;2091671;28;3315;-74
2021/09/15 00:26:04;;;;;;;;;;;;;;;;;;2092703;28;3772;-74
2021/09/15 00:27:05;;;;;;;;;;;;;;;;;;2091840;28;4308;-75
2021/09/15 00:28:05;;;;;;;;;;;;;;;;;;2092653;28;4036;-74
2021/09/15 00:29:06;;;;;;;;;;;;;;;;;;2093068;28;3200;-74
2021/09/15 00:30:06;;;;;;;;;;;;;;;;;;2092345;28;4469;-74
2021/09/15 00:31:07;;;;;;;;;;;;;;;;;;2091803;28;982;-75
2021/09/15 00:32:08;;;;;;;;;;;;;;;;;;2093907;28;1014;-74
2021/09/15 00:33:09;;;;;;;;;;;;;;;;;;2093074;28;4034;-74
2021/09/15 00:34:09;;;;;;;;;;;;;;;;;;2094432;28;1217;-74
2021/09/15 00:35:11;;;;;;;;;;;;;;;;;;2091641;28;4080;-74
2021/09/15 00:36:11;;;;;;;;;;;;;;;;;;2091473;28;1057;-74
2021/09/15 00:37:13;;;;;;;;;;;;;;;;;;2093004;28;1089;-74
2021/09/15 00:38:13;;;;;;;;;;;;;;;;;;2093260;28;1055;-74
2021/09/15 00:39:14;;;;;;;;;;;;;;;;;;2094597;28;1045;-74
2021/09/15 00:40:14;;;;;;;;;;;;;;;;;;2092844;28;3622;-74
2021/09/15 00:41:15;;;;;;;;;;;;;;;;;;2093025;28;1036;-74
2021/09/15 00:42:15;;;;;;;;;;;;;;;;;;2093822;28;1143;-74
2021/09/15 00:43:16;;;;;;;;;;;;;;;;;;2091825;28;4032;-74
2021/09/15 00:44:16;;;;;;;;;;;;;;;;;;2093373;28;3184;-74
2021/09/15 00:45:18;;;;;;;;;;;;;;;;;;2093527;28;3970;-74
2021/09/15 00:46:18;;;;;;;;;;;;;;;;;;2093187;28;1084;-74
2021/09/15 00:47:19;;;;;;;;;;;;;;;;;;2094143;28;1236;-74
2021/09/15 00:48:20;;;;;;;;;;;;;;;;;;2092966;28;4246;-74
2021/09/15 00:49:20;;;;;;;;;;;;;;;;;;2094467;28;1917;-74
2021/09/15 00:50:21;;;;;;;;;;;;;;;;;;2093619;28;4182;-75
2021/09/15 00:51:21;;;;;;;;;;;;;;;;;;2093916;28;1045;-74
2021/09/15 00:52:23;;;;;;;;;;;;;;;;;;2094390;28;1036;-74
2021/09/15 00:53:24;;;;;;;;;;;;;;;;;;2092807;28;4161;-75
2021/09/15 00:54:24;;;;;;;;;;;;;;;;;;2093599;28;1033;-74
2021/09/15 00:55:25;;;;;;;;;;;;;;;;;;2094277;28;3297;-74
2021/09/15 00:56:25;;;;;;;;;;;;;;;;;;2092824;28;4104;-74
2021/09/15 00:57:26;;;;;;;;;;;;;;;;;;2094241;28;1181;-74
2021/09/15 00:58:26;;;;;;;;;;;;;;;;;;2093696;28;4275;-74
2021/09/15 00:59:27;;;;;;;;;;;;;;;;;;2095333;28;1068;-74
2021/09/15 01:00:28;;;;;;;;;;;;;;;;;;2095127;28;1123;-74
2021/09/15 01:01:29;;;;;;;;;;;;;;;;;;2093441;28;3284;-74
2021/09/15 01:02:29;;;;;;;;;;;;;;;;;;2094242;28;3452;-74
2021/09/15 01:03:32;;;;;;;;;;;;;;;;;;2093849;28;4409;-75
2021/09/15 01:04:32;;;;;;;;;;;;;;;;;;2095465;28;1112;-74
2021/09/15 01:05:33;;;;;;;;;;;;;;;;;;2095032;28;1727;-74
2021/09/15 01:06:34;;;;;;;;;;;;;;;;;;2094114;28;1070;-75
2021/09/15 01:07:35;;;;;;;;;;;;;;;;;;2094561;28;4044;-74
2021/09/15 01:08:35;;;;;;;;;;;;;;;;;;2094906;28;1285;-74
2021/09/15 01:09:36;;;;;;;;;;;;;;;;;;2094339;28;4276;-74
2021/09/15 01:10:36;;;;;;;;;;;;;;;;;;2094466;28;1030;-74
2021/09/15 01:11:38;;;;;;;;;;;;;;;;;;2095524;28;1007;-74
2021/09/15 01:12:38;;;;;;;;;;;;;;;;;;2092362;28;3408;-74
2021/09/15 01:13:39;;;;;;;;;;;;;;;;;;2095005;28;4243;-74
2021/09/15 01:14:39;;;;;;;;;;;;;;;;;;2096074;28;3223;-75
2021/09/15 01:15:43;;;;;;;;;;;;;;;;;;2093608;28;4386;-74
2021/09/15 01:16:44;;;;;;;;;;;;;;;;;;2096221;28;1060;-74
2021/09/15 01:17:45;;;;;;;;;;;;;;;;;;2094435;28;3716;-74
2021/09/15 01:18:45;;;;;;;;;;;;;;;;;;2097158;28;1078;-75
2021/09/15 01:19:46;;;;;;;;;;;;;;;;;;2096778;28;1107;-74
2021/09/15 01:20:46;;;;;;;;;;;;;;;;;;2095173;28;3765;-74
2021/09/15 01:21:48;;;;;;;;;;;;;;;;;;2095428;28;2369;-74
2021/09/15 01:22:48;;;;;;;;;;;;;;;;;;2097836;28;1128;-75
2021/09/15 01:23:49;;;;;;;;;;;;;;;;;;2096399;28;1949;-74
2021/09/15 01:24:49;;;;;;;;;;;;;;;;;;2097087;28;2743;-75
2021/09/15 01:25:50;;;;;;;;;;;;;;;;;;2093199;28;4192;-74
2021/09/15 01:26:50;;;;;;;;;;;;;;;;;;2096388;28;3145;-75
2021/09/15 01:27:52;;;;;;;;;;;;;;;;;;2096511;28;2391;-74
2021/09/15 01:28:52;;;;;;;;;;;;;;;;;;2096276;28;4187;-74
2021/09/15 01:29:53;;;;;;;;;;;;;;;;;;2097856;28;1905;-74
2021/09/15 01:30:53;;;;;;;;;;;;;;;;;;2096787;28;3984;-75
2021/09/15 01:31:54;;;;;;;;;;;;;;;;;;2097534;28;1084;-74
2021/09/15 01:32:54;;;;;;;;;;;;;;;;;;2096532;28;4082;-74
2021/09/15 01:33:55;;;;;;;;;;;;;;;;;;2095634;28;1445;-74
2021/09/15 01:34:56;;;;;;;;;;;;;;;;;;2090065;28;3852;-74
2021/09/15 01:35:57;;;;;;;;;;;;;;;;;;2091096;28;3958;-74
2021/09/15 01:36:57;;;;;;;;;;;;;;;;;;2096754;28;3254;-75
2021/09/15 01:37:58;;;;;;;;;;;;;;;;;;2098037;28;1100;-74
2021/09/15 01:38:58;;;;;;;;;;;;;;;;;;2098913;28;1330;-75
2021/09/15 01:39:59;;;;;;;;;;;;;;;;;;2097346;28;3412;-74
2021/09/15 01:40:59;;;;;;;;;;;;;;;;;;2094292;28;4539;-75
2021/09/15 01:42:00;;;;;;;;;;;;;;;;;;2098502;28;1053;-74
2021/09/15 01:43:01;;;;;;;;;;;;;;;;;;2098455;28;1162;-74
2021/09/15 01:44:02;;;;;;;;;;;;;;;;;;2097558;28;1053;-74
2021/09/15 01:45:02;;;;;;;;;;;;;;;;;;2095598;28;4167;-75
2021/09/15 01:46:03;;;;;;;;;;;;;;;;;;2097714;28;1067;-74
2021/09/15 01:47:03;;;;;;;;;;;;;;;;;;2095065;28;4184;-75
2021/09/15 01:48:04;;;;;;;;;;;;;;;;;;2098376;28;1182;-74
2021/09/15 01:49:04;;;;;;;;;;;;;;;;;;2095217;28;4254;-74
2021/09/15 01:50:05;;;;;;;;;;;;;;;;;;2097178;28;3772;-74
2021/09/15 01:51:05;;;;;;;;;;;;;;;;;;2095732;28;4616;-74
2021/09/15 01:52:06;;;;;;;;;;;;;;;;;;2096447;28;3760;-74
2021/09/15 01:53:07;;;;;;;;;;;;;;;;;;2097825;28;1598;-74
2021/09/15 01:54:08;;;;;;;;;;;;;;;;;;2096492;28;1253;-74
2021/09/15 01:55:08;;;;;;;;;;;;;;;;;;2091570;28;3410;-74
2021/09/15 01:56:11;;;;;;;;;;;;;;;;;;2091987;28;1064;-74
2021/09/15 01:57:11;;;;;;;;;;;;;;;;;;2092065;28;4184;-74
2021/09/15 01:58:13;;;;;;;;;;;;;;;;;;2092878;28;4164;-74
2021/09/15 01:59:13;;;;;;;;;;;;;;;;;;2091214;28;3929;-75
2021/09/15 02:00:14;;;;;;;;;;;;;;;;;;2091774;28;1070;-74
2021/09/15 02:01:14;;;;;;;;;;;;;;;;;;2088141;28;1926;-74
2021/09/15 02:02:15;;;;;;;;;;;;;;;;;;2088486;28;1050;-74
2021/09/15 02:03:15;;;;;;;;;;;;;;;;;;2091158;28;3938;-74
2021/09/15 02:04:16;;;;;;;;;;;;;;;;;;2091386;28;4209;-74
2021/09/15 02:05:16;;;;;;;;;;;;;;;;;;2087969;28;4057;-74
2021/09/15 02:06:17;;;;;;;;;;;;;;;;;;2091221;28;1125;-74
2021/09/15 02:07:18;;;;;;;;;;;;;;;;;;2091777;28;1566;-74
2021/09/15 02:08:19;;;;;;;;;;;;;;;;;;2092019;28;4082;-74
2021/09/15 02:09:22;;;;;;;;;;;;;;;;;;2092234;28;1910;-74
2021/09/15 02:10:23;;;;;;;;;;;;;;;;;;2092093;28;990;-74
2021/09/15 02:11:24;;;;;;;;;;;;;;;;;;2091044;28;4044;-74
2021/09/15 02:12:25;;;;;;;;;;;;;;;;;;2089753;28;4119;-75
2021/09/15 02:13:25;;;;;;;;;;;;;;;;;;2090910;28;4062;-75
2021/09/15 02:14:26;;;;;;;;;;;;;;;;;;2092708;28;4173;-74
2021/09/15 02:15:27;;;;;;;;;;;;;;;;;;2091358;28;3168;-75
2021/09/15 02:16:28;;;;;;;;;;;;;;;;;;2091830;28;1132;-75
2021/09/15 02:17:28;;;;;;;;;;;;;;;;;;2092363;28;3910;-74
2021/09/15 02:18:29;;;;;;;;;;;;;;;;;;2092643;28;3882;-74
2021/09/15 02:19:33;;;;;;;;;;;;;;;;;;2093035;28;1013;-75
2021/09/15 02:20:35;;;;;;;;;;;;;;;;;;2093833;28;1127;-74
2021/09/15 02:21:36;;;;;;;;;;;;;;;;;;2093159;28;1101;-74
2021/09/15 02:22:36;;;;;;;;;;;;;;;;;;2092976;28;1099;-74
2021/09/15 02:23:37;;;;;;;;;;;;;;;;;;2090909;28;4013;-74
2021/09/15 02:24:38;;;;;;;;;;;;;;;;;;2093023;28;4220;-74
2021/09/15 02:25:39;;;;;;;;;;;;;;;;;;2091835;28;2489;-74
2021/09/15 02:26:39;;;;;;;;;;;;;;;;;;2091115;28;4193;-74
2021/09/15 02:27:40;;;;;;;;;;;;;;;;;;2093025;28;3588;-75
2021/09/15 02:28:40;;;;;;;;;;;;;;;;;;2092804;28;3886;-75
2021/09/15 02:29:41;;;;;;;;;;;;;;;;;;2093724;28;1891;-75
2021/09/15 02:30:41;;;;;;;;;;;;;;;;;;2093023;28;4169;-74
2021/09/15 02:31:42;;;;;;;;;;;;;;;;;;2093469;28;1111;-74
2021/09/15 02:32:43;;;;;;;;;;;;;;;;;;2093646;28;1028;-74
2021/09/15 02:33:44;;;;;;;;;;;;;;;;;;2093567;28;1074;-74
2021/09/15 02:34:46;;;;;;;;;;;;;;;;;;2094173;28;1484;-74
2021/09/15 02:35:47;;;;;;;;;;;;;;;;;;2092082;28;4091;-74
2021/09/15 02:36:47;;;;;;;;;;;;;;;;;;2092672;28;4167;-74
2021/09/15 02:37:48;;;;;;;;;;;;;;;;;;2095076;28;1210;-74
2021/09/15 02:38:48;;;;;;;;;;;;;;;;;;2094052;28;4221;-74
2021/09/15 02:39:49;;;;;;;;;;;;;;;;;;2093965;28;1692;-74
2021/09/15 02:40:49;;;;;;;;;;;;;;;;;;2093529;28;4171;-74
2021/09/15 02:41:50;;;;;;;;;;;;;;;;;;2092983;28;4252;-75
2021/09/15 02:42:51;;;;;;;;;;;;;;;;;;2092882;28;1052;-74
2021/09/15 02:43:52;;;;;;;;;;;;;;;;;;2092795;28;4243;-74
2021/09/15 02:44:52;;;;;;;;;;;;;;;;;;2092836;28;2712;-74
2021/09/15 02:45:53;;;;;;;;;;;;;;;;;;2093635;28;3314;-74
2021/09/15 02:46:53;;;;;;;;;;;;;;;;;;2093501;28;4222;-74
2021/09/15 02:47:54;;;;;;;;;;;;;;;;;;2094595;28;3797;-74
2021/09/15 02:48:57;;;;;;;;;;;;;;;;;;2093987;28;4034;-74
2021/09/15 02:49:58;;;;;;;;;;;;;;;;;;2095514;28;1983;-74
2021/09/15 02:50:58;;;;;;;;;;;;;;;;;;2092671;28;4307;-74
2021/09/15 02:51:59;;;;;;;;;;;;;;;;;;2095944;28;993;-74
2021/09/15 02:52:59;;;;;;;;;;;;;;;;;;2095940;28;1165;-74
2021/09/15 02:54:01;;;;;;;;;;;;;;;;;;2095339;28;1228;-74
2021/09/15 02:55:04;;;;;;;;;;;;;;;;;;2094703;28;3800;-74
2021/09/15 02:56:05;;;;;;;;;;;;;;;;;;2096125;28;1002;-74
2021/09/15 02:57:06;;;;;;;;;;;;;;;;;;2095482;28;1090;-74
2021/09/15 02:58:07;;;;;;;;;;;;;;;;;;2095123;28;3945;-74
2021/09/15 02:59:08;;;;;;;;;;;;;;;;;;2096456;28;3958;-74
2021/09/15 03:00:08;;;;;;;;;;;;;;;;;;2094572;28;3418;-74
2021/09/15 03:01:09;;;;;;;;;;;;;;;;;;2096008;28;986;-74
2021/09/15 03:02:11;;;;;;;;;;;;;;;;;;2097203;28;995;-74
2021/09/15 03:03:11;;;;;;;;;;;;;;;;;;2094342;28;4173;-74
2021/09/15 03:04:12;;;;;;;;;;;;;;;;;;2089926;28;3753;-75
2021/09/15 03:05:12;;;;;;;;;;;;;;;;;;2094887;28;3725;-74
2021/09/15 03:06:13;;;;;;;;;;;;;;;;;;2096657;28;1094;-74
2021/09/15 03:07:13;;;;;;;;;;;;;;;;;;2095640;28;3178;-74
2021/09/15 03:08:14;;;;;;;;;;;;;;;;;;2095578;28;4531;-74
2021/09/15 03:09:14;;;;;;;;;;;;;;;;;;2092568;28;3987;-74
2021/09/15 03:10:15;;;;;;;;;;;;;;;;;;2091743;28;4112;-74
2021/09/15 03:11:16;;;;;;;;;;;;;;;;;;2094172;28;4073;-74
2021/09/15 03:12:18;;;;;;;;;;;;;;;;;;2094971;28;1843;-74
2021/09/15 03:13:18;;;;;;;;;;;;;;;;;;2096231;28;4025;-74
2021/09/15 03:14:19;;;;;;;;;;;;;;;;;;2097165;28;1018;-74
2021/09/15 03:15:19;;;;;;;;;;;;;;;;;;2095618;28;4203;-74
2021/09/15 03:16:22;;;;;;;;;;;;;;;;;;2091125;28;4253;-74
2021/09/15 03:17:22;;;;;;;;;;;;;;;;;;2095763;28;3623;-74
2021/09/15 03:18:23;;;;;;;;;;;;;;;;;;2096673;28;4068;-74
2021/09/15 03:19:23;;;;;;;;;;;;;;;;;;2093207;28;3663;-75
2021/09/15 03:20:25;;;;;;;;;;;;;;;;;;2096574;28;1876;-74
2021/09/15 03:21:25;;;;;;;;;;;;;;;;;;2095894;28;2406;-75
2021/09/15 03:22:28;;;;;;;;;;;;;;;;;;2092238;28;4373;-74
2021/09/15 03:23:28;;;;;;;;;;;;;;;;;;2094019;28;4171;-74
2021/09/15 03:24:29;;;;;;;;;;;;;;;;;;2096675;28;1992;-74
2021/09/15 03:25:29;;;;;;;;;;;;;;;;;;2096469;28;4254;-74
2021/09/15 03:26:30;;;;;;;;;;;;;;;;;;2094085;28;4169;-74
2021/09/15 03:27:30;;;;;;;;;;;;;;;;;;2093085;28;4679;-74
2021/09/15 03:28:32;;;;;;;;;;;;;;;;;;2091241;28;1084;-74
2021/09/15 03:29:32;;;;;;;;;;;;;;;;;;2091476;28;1113;-74
2021/09/15 03:30:33;;;;;;;;;;;;;;;;;;2088727;28;3981;-74
2021/09/15 03:31:33;;;;;;;;;;;;;;;;;;2088748;28;4235;-74
2021/09/15 03:32:34;;;;;;;;;;;;;;;;;;2092047;28;4216;-74
2021/09/15 03:33:34;;;;;;;;;;;;;;;;;;2090867;28;1081;-74
2021/09/15 03:34:35;;;;;;;;;;;;;;;;;;2087085;28;1284;-74
2021/09/15 03:35:35;;;;;;;;;;;;;;;;;;2090951;28;4200;-74
2021/09/15 03:36:37;;;;;;;;;;;;;;;;;;2091796;28;1095;-74
2021/09/15 03:37:37;;;;;;;;;;;;;;;;;;2090508;28;3755;-74
2021/09/15 03:38:38;;;;;;;;;;;;;;;;;;2087894;28;4253;-74
2021/09/15 03:39:38;;;;;;;;;;;;;;;;;;2090767;28;1251;-74
2021/09/15 03:40:39;;;;;;;;;;;;;;;;;;2090867;28;4284;-74
2021/09/15 03:42:40;;;;;;;;;;;;;;;;;;2122387;27;1765;-76
2021/09/15 03:43:40;;;;;;;;;;;;;;;;;;2113642;27;3099;-76
2021/09/15 03:44:41;;;;;;;;;;;;;;;;;;2114926;27;2075;-74
2021/09/15 03:45:41;;;;;;;;;;;;;;;;;;2112400;27;4077;-74
2021/09/15 03:46:42;;;;;;;;;;;;;;;;;;2114308;27;1153;-74
2021/09/15 03:47:42;;;;;;;;;;;;;;;;;;2114623;27;3991;-74
2021/09/15 03:48:43;;;;;;;;;;;;;;;;;;2115225;27;4269;-74
2021/09/15 03:49:44;;;;;;;;;;;;;;;;;;2109909;27;1517;-74
2021/09/15 03:50:45;;;;;;;;;;;;;;;;;;2116239;27;1066;-74
2021/09/15 03:51:45;;;;;;;;;;;;;;;;;;2116152;27;1081;-74
2021/09/15 03:52:46;;;;;;;;;;;;;;;;;;2115189;27;3785;-74
2021/09/15 03:53:46;;;;;;;;;;;;;;;;;;2114573;27;4106;-74
2021/09/15 03:54:47;;;;;;;;;;;;;;;;;;2114606;27;3852;-74
2021/09/15 03:55:48;;;;;;;;;;;;;;;;;;2115355;27;3737;-74
2021/09/15 03:56:49;;;;;;;;;;;;;;;;;;2115231;27;3361;-74
2021/09/15 03:57:49;;;;;;;;;;;;;;;;;;2116093;27;4054;-74
2021/09/15 03:58:50;;;;;;;;;;;;;;;;;;2117178;27;1024;-74
2021/09/15 03:59:50;;;;;;;;;;;;;;;;;;2113525;27;1339;-74
2021/09/15 04:00:51;;;;;;;;;;;;;;;;;;2116519;27;4137;-74
2021/09/15 04:01:51;;;;;;;;;;;;;;;;;;2116499;27;1941;-74
2021/09/15 04:02:52;;;;;;;;;;;;;;;;;;2114936;27;1001;-74
2021/09/15 04:03:52;;;;;;;;;;;;;;;;;;2112684;27;3776;-74
2021/09/15 04:04:53;;;;;;;;;;;;;;;;;;2116316;27;3817;-74
2021/09/15 04:05:54;;;;;;;;;;;;;;;;;;2117021;27;4405;-74
2021/09/15 04:06:55;;;;;;;;;;;;;;;;;;2116458;27;3016;-74
2021/09/15 04:07:55;;;;;;;;;;;;;;;;;;2115128;27;2875;-74
2021/09/15 04:08:57;;;;;;;;;;;;;;;;;;2116899;27;4087;-74
2021/09/15 04:09:57;;;;;;;;;;;;;;;;;;2117548;27;3968;-74
2021/09/15 04:10:58;;;;;;;;;;;;;;;;;;2117034;27;3865;-74
2021/09/15 04:11:58;;;;;;;;;;;;;;;;;;2113861;27;3373;-74
2021/09/15 04:12:59;;;;;;;;;;;;;;;;;;2118016;27;1017;-74
2021/09/15 04:13:59;;;;;;;;;;;;;;;;;;2116370;27;3933;-73
2021/09/15 04:15:00;;;;;;;;;;;;;;;;;;2117240;27;3198;-74
2021/09/15 04:16:00;;;;;;;;;;;;;;;;;;2117472;27;4250;-74
2021/09/15 04:17:01;;;;;;;;;;;;;;;;;;2118197;27;1129;-74
2021/09/15 04:18:02;;;;;;;;;;;;;;;;;;2119075;27;1127;-74
2021/09/15 04:19:03;;;;;;;;;;;;;;;;;;2117820;27;4234;-74
2021/09/15 04:20:05;;;;;;;;;;;;;;;;;;2119203;27;982;-74
2021/09/15 04:21:05;;;;;;;;;;;;;;;;;;2117959;27;1091;-74
2021/09/15 04:22:12;;;;;;;;;;;;;;;;;;2118097;27;3001;-74
2021/09/15 04:23:15;;;;;;;;;;;;;;;;;;2118634;27;1093;-74
2021/09/15 04:32:06;;;;;;;;;;;;;;;;;;2113511;27;782;-74
2021/09/15 04:33:06;;;;;;;;;;;;;;;;;;2112711;27;1132;-74
2021/09/15 04:34:07;;;;;;;;;;;;;;;;;;2113019;27;1344;-74
2021/09/15 04:35:07;;;;;;;;;;;;;;;;;;2112461;27;4572;-74
2021/09/15 04:36:08;;;;;;;;;;;;;;;;;;2113406;27;1511;-74
2021/09/15 04:37:08;;;;;;;;;;;;;;;;;;2112996;27;1066;-74
2021/09/15 04:38:10;;;;;;;;;;;;;;;;;;2112894;27;4328;-74
2021/09/15 04:39:10;;;;;;;;;;;;;;;;;;2114541;27;1032;-74
2021/09/15 04:40:11;;;;;;;;;;;;;;;;;;2114898;27;1305;-74
2021/09/15 04:41:11;;;;;;;;;;;;;;;;;;2113159;27;3693;-74
2021/09/15 04:42:12;;;;;;;;;;;;;;;;;;2113097;27;4206;-74
2021/09/15 04:43:12;;;;;;;;;;;;;;;;;;2113903;27;4247;-74
2021/09/15 04:44:13;;;;;;;;;;;;;;;;;;2114648;27;1011;-74
2021/09/15 04:45:13;;;;;;;;;;;;;;;;;;2113594;27;4514;-74
2021/09/15 04:46:14;;;;;;;;;;;;;;;;;;2115360;27;1137;-74
2021/09/15 04:47:15;;;;;;;;;;;;;;;;;;2115593;27;1238;-74
2021/09/15 04:48:16;;;;;;;;;;;;;;;;;;2114306;27;3639;-74
2021/09/15 04:49:16;;;;;;;;;;;;;;;;;;2110952;27;1268;-74
2021/09/15 04:50:17;;;;;;;;;;;;;;;;;;2113775;27;4318;-74
2021/09/15 04:51:18;;;;;;;;;;;;;;;;;;2114350;27;4674;-74
2021/09/15 04:52:18;;;;;;;;;;;;;;;;;;2114906;27;1217;-74
2021/09/15 04:53:19;;;;;;;;;;;;;;;;;;2110883;27;1087;-74
2021/09/15 04:54:23;;;;;;;;;;;;;;;;;;2107797;27;1320;-74
2021/09/15 04:55:23;;;;;;;;;;;;;;;;;;2109313;27;3591;-74
2021/09/15 04:56:24;;;;;;;;;;;;;;;;;;2108454;27;3975;-74
2021/09/15 04:57:24;;;;;;;;;;;;;;;;;;2110836;27;1979;-74
2021/09/15 04:58:25;;;;;;;;;;;;;;;;;;2107465;27;2098;-74
2021/09/15 04:59:25;;;;;;;;;;;;;;;;;;2109105;27;1215;-74
2021/09/15 05:00:26;;;;;;;;;;;;;;;;;;2109972;27;4626;-74
2021/09/15 05:01:26;;;;;;;;;;;;;;;;;;2109412;27;1085;-74
2021/09/15 05:02:27;;;;;;;;;;;;;;;;;;2109768;27;2237;-74
2021/09/15 05:03:28;;;;;;;;;;;;;;;;;;2108569;27;4388;-74
2021/09/15 05:04:29;;;;;;;;;;;;;;;;;;2111870;27;1102;-74
2021/09/15 05:05:29;;;;;;;;;;;;;;;;;;2109986;27;4196;-74
2021/09/15 05:06:30;;;;;;;;;;;;;;;;;;2109921;27;1012;-74
2021/09/15 05:07:30;;;;;;;;;;;;;;;;;;2107895;27;4673;-74
2021/09/15 05:08:31;;;;;;;;;;;;;;;;;;2106549;27;4618;-74
2021/09/15 05:09:31;;;;;;;;;;;;;;;;;;2111272;27;1037;-74
2021/09/15 05:10:32;;;;;;;;;;;;;;;;;;2109683;27;4647;-74
2021/09/15 05:11:33;;;;;;;;;;;;;;;;;;2108490;27;4599;-74
2021/09/15 05:12:36;;;;;;;;;;;;;;;;;;2109309;27;4574;-74
2021/09/15 05:13:36;;;;;;;;;;;;;;;;;;2110978;27;4723;-73
2021/09/15 05:14:37;;;;;;;;;;;;;;;;;;2107317;27;4404;-74
2021/09/15 05:15:37;;;;;;;;;;;;;;;;;;2109203;27;4543;-74
2021/09/15 05:16:38;;;;;;;;;;;;;;;;;;2107102;27;4630;-74
2021/09/15 05:17:38;;;;;;;;;;;;;;;;;;2111518;27;3627;-73
2021/09/15 05:18:40;;;;;;;;;;;;;;;;;;2110862;27;4705;-74
2021/09/15 05:19:40;;;;;;;;;;;;;;;;;;2109201;27;4552;-74
2021/09/15 05:20:41;;;;;;;;;;;;;;;;;;2108202;27;4753;-74
2021/09/15 05:21:41;;;;;;;;;;;;;;;;;;2109218;27;4642;-74
2021/09/15 05:22:42;;;;;;;;;;;;;;;;;;2107029;27;4565;-74
2021/09/15 05:23:42;;;;;;;;;;;;;;;;;;2107774;27;4625;-74
2021/09/15 05:24:45;;;;;;;;;;;;;;;;;;2110507;27;2111;-74
2021/09/15 05:25:46;;;;;;;;;;;;;;;;;;2110449;27;4254;-74
2021/09/15 05:26:46;;;;;;;;;;;;;;;;;;2110297;27;1783;-74
2021/09/15 05:27:47;;;;;;;;;;;;;;;;;;2110243;27;4576;-74
2021/09/15 05:28:48;;;;;;;;;;;;;;;;;;2111070;27;4541;-74
2021/09/15 05:29:48;;;;;;;;;;;;;;;;;;2110870;27;4108;-74
2021/09/15 05:30:49;;;;;;;;;;;;;;;;;;2111458;27;4249;-74
2021/09/15 05:31:50;;;;;;;;;;;;;;;;;;2110950;27;5153;-74
2021/09/15 05:32:54;;;;;;;;;;;;;;;;;;2111969;27;1666;-74
2021/09/15 05:33:54;;;;;;;;;;;;;;;;;;2111654;27;3917;-73
2021/09/15 05:34:55;;;;;;;;;;;;;;;;;;2111337;27;4181;-74
2021/09/15 05:35:55;;;;;;;;;;;;;;;;;;2112462;27;3347;-74
2021/09/15 05:36:56;;;;;;;;;;;;;;;;;;2111553;27;4246;-73
2021/09/15 05:37:56;;;;;;;;;;;;;;;;;;2113397;27;4605;-74
2021/09/15 05:38:57;;;;;;;;;;;;;;;;;;2115077;27;1079;-74
2021/09/15 05:39:59;;;;;;;;;;;;;;;;;;2112922;27;1205;-74
2021/09/15 05:41:00;;;;;;;;;;;;;;;;;;2114564;27;1477;-74
2021/09/15 05:42:00;;;;;;;;;;;;;;;;;;2113017;27;4545;-73
2021/09/15 05:43:01;;;;;;;;;;;;;;;;;;2114521;27;1084;-74
2021/09/15 05:44:01;;;;;;;;;;;;;;;;;;2113500;27;1991;-74
2021/09/15 05:45:04;;;;;;;;;;;;;;;;;;2112938;27;4084;-74
2021/09/15 05:46:04;;;;;;;;;;;;;;;;;;2114222;27;1295;-74
2021/09/15 05:47:05;;;;;;;;;;;;;;;;;;2113937;27;2790;-74
2021/09/15 05:48:05;;;;;;;;;;;;;;;;;;2113550;27;3994;-74
2021/09/15 05:49:06;;;;;;;;;;;;;;;;;;2109730;27;1318;-74
2021/09/15 05:50:06;;;;;;;;;;;;;;;;;;2104426;27;3848;-74
2021/09/15 05:51:07;;;;;;;;;;;;;;;;;;2107533;27;4454;-74
2021/09/15 05:52:07;;;;;;;;;;;;;;;;;;2107988;27;2785;-74
2021/09/15 05:53:09;;;;;;;;;;;;;;;;;;2109208;27;1068;-74
2021/09/15 05:54:09;;;;;;;;;;;;;;;;;;2107727;27;1102;-74
2021/09/15 05:55:13;;;;;;;;;;;;;;;;;;2107647;27;3473;-74
2021/09/15 05:56:14;;;;;;;;;;;;;;;;;;2107935;27;2792;-74
2021/09/15 05:57:14;;;;;;;;;;;;;;;;;;2108486;27;3958;-74
2021/09/15 05:58:17;;;;;;;;;;;;;;;;;;2108261;27;3714;-74
2021/09/15 05:59:17;;;;;;;;;;;;;;;;;;2108200;27;3407;-74
2021/09/15 06:00:18;;;;;;;;;;;;;;;;;;2106649;27;3235;-74
2021/09/15 06:01:19;;;;;;;;;;;;;;;;;;2108244;27;3626;-74
2021/09/15 06:02:19;;;;;;;;;;;;;;;;;;2107325;27;3550;-74
2021/09/15 06:03:20;;;;;;;;;;;;;;;;;;2108559;27;4008;-74
2021/09/15 06:04:20;;;;;;;;;;;;;;;;;;2106331;27;1135;-74
2021/09/15 06:05:21;;;;;;;;;;;;;;;;;;2104065;27;3979;-74
2021/09/15 06:06:21;;;;;;;;;;;;;;;;;;2107581;27;1912;-74
2021/09/15 06:07:23;;;;;;;;;;;;;;;;;;2110011;27;1930;-74
2021/09/15 06:08:23;;;;;;;;;;;;;;;;;;2108865;27;1959;-74
2021/09/15 06:09:24;;;;;;;;;;;;;;;;;;2107254;27;4323;-74
2021/09/15 06:10:24;;;;;;;;;;;;;;;;;;2106968;27;4272;-74
2021/09/15 06:11:25;;;;;;;;;;;;;;;;;;2108644;27;3913;-74
2021/09/15 06:12:25;;;;;;;;;;;;;;;;;;2109370;27;3584;-74
2021/09/15 06:13:27;;;;;;;;;;;;;;;;;;2108871;27;1000;-74
2021/09/15 06:14:27;;;;;;;;;;;;;;;;;;2110880;27;1146;-74
2021/09/15 06:15:28;;;;;;;;;;;;;;;;;;2108204;27;4530;-74
2021/09/15 06:16:28;;;;;;;;;;;;;;;;;;2108737;27;2683;-74
2021/09/15 06:17:29;;;;;;;;;;;;;;;;;;2109047;27;4084;-74
2021/09/15 06:18:29;;;;;;;;;;;;;;;;;;2108878;27;3959;-74
2021/09/15 06:19:30;;;;;;;;;;;;;;;;;;2107874;27;4036;-74
2021/09/15 06:20:30;;;;;;;;;;;;;;;;;;2108720;27;4410;-74
2021/09/15 06:21:32;;;;;;;;;;;;;;;;;;2108147;27;5357;-74
2021/09/15 06:22:32;;;;;;;;;;;;;;;;;;2106957;27;5365;-74
2021/09/15 06:23:34;;;;;;;;;;;;;;;;;;2108190;27;4325;-74
2021/09/15 06:24:34;;;;;;;;;;;;;;;;;;2110649;27;3268;-74
2021/09/15 06:25:36;;;;;;;;;;;;;;;;;;2109093;27;3712;-74
2021/09/15 06:26:37;;;;;;;;;;;;;;;;;;2107747;27;4001;-74
2021/09/15 06:27:39;;;;;;;;;;;;;;;;;;2111260;27;1141;-74
2021/09/15 06:28:40;;;;;;;;;;;;;;;;;;2110710;27;1092;-74
2021/09/15 06:29:40;;;;;;;;;;;;;;;;;;2110242;27;2882;-74
2021/09/15 06:30:41;;;;;;;;;;;;;;;;;;2110319;27;3357;-74
2021/09/15 06:31:42;;;;;;;;;;;;;;;;;;2110966;27;3203;-74
2021/09/15 06:32:43;;;;;;;;;;;;;;;;;;2110868;27;3147;-74
2021/09/15 06:33:44;;;;;;;;;;;;;;;;;;2109812;27;4100;-74
2021/09/15 06:34:44;;;;;;;;;;;;;;;;;;2112075;27;2846;-74
2021/09/15 06:35:45;;;;;;;;;;;;;;;;;;2111271;27;3123;-74
2021/09/15 06:36:47;;;;;;;;;;;;;;;;;;2107570;27;2953;-74
2021/09/15 06:37:48;;;;;;;;;;;;;;;;;;2110719;27;2277;-74
2021/09/15 06:38:49;;;;;;;;;;;;;;;;;;2112919;27;1867;-74
2021/09/15 06:39:49;;;;;;;;;;;;;;;;;;2112466;27;2852;-74
2021/09/15 06:40:50;;;;;;;;;;;;;;;;;;2110008;27;4849;-74
2021/09/15 06:41:51;;;;;;;;;;;;;;;;;;2112820;27;1244;-74
2021/09/15 06:42:51;;;;;;;;;;;;;;;;;;2112010;27;3748;-74
2021/09/15 06:43:52;;;;;;;;;;;;;;;;;;2112092;27;1067;-74
2021/09/15 06:44:53;;;;;;;;;;;;;;;;;;2109396;27;4191;-74
2021/09/15 06:45:54;;;;;;;;;;;;;;;;;;2111069;27;4549;-74
2021/09/15 06:46:54;;;;;;;;;;;;;;;;;;2106969;27;4263;-74
2021/09/15 06:47:56;;;;;;;;;;;;;;;;;;2106407;27;3652;-74
2021/09/15 06:48:57;;;;;;;;;;;;;;;;;;2106744;27;2312;-74
2021/09/15 06:49:57;;;;;;;;;;;;;;;;;;2105527;27;4076;-74
2021/09/15 06:50:58;;;;;;;;;;;;;;;;;;2100262;27;4725;-74
2021/09/15 06:51:58;;;;;;;;;;;;;;;;;;2105922;27;2548;-74
2021/09/15 06:52:59;;;;;;;;;;;;;;;;;;2107122;27;2401;-74
2021/09/15 06:54:00;;;;;;;;;;;;;;;;;;2105397;27;3201;-74
2021/09/15 06:55:00;;;;;;;;;;;;;;;;;;2106895;27;4639;-74
2021/09/15 06:56:02;;;;;;;;;;;;;;;;;;2106697;27;3738;-74
2021/09/15 06:57:02;;;;;;;;;;;;;;;;;;2106631;27;4272;-74
2021/09/15 06:58:03;;;;;;;;;;;;;;;;;;2108881;27;1000;-74
2021/09/15 06:59:03;;;;;;;;;;;;;;;;;;2104930;27;3812;-74
2021/09/15 07:00:04;;;;;;;;;;;;;;;;;;2105131;27;4375;-74
2021/09/15 07:01:04;;;;;;;;;;;;;;;;;;2105196;27;4622;-74
2021/09/15 07:02:05;;;;;;;;;;;;;;;;;;2107542;27;3175;-74
2021/09/15 07:03:05;;;;;;;;;;;;;;;;;;2107111;27;4435;-74
2021/09/15 07:04:06;;;;;;;;;;;;;;;;;;2107867;27;3721;-74
2021/09/15 07:05:06;;;;;;;;;;;;;;;;;;2107577;27;4555;-74
2021/09/15 07:06:08;;;;;;;;;;;;;;;;;;2108041;27;1239;-74
2021/09/15 07:07:08;;;;;;;;;;;;;;;;;;2107636;27;3698;-74
2021/09/15 07:08:10;;;;;;;;;;;;;;;;;;2110153;27;4710;-74
2021/09/15 07:09:11;;;;;;;;;;;;;;;;;;2107827;27;4134;-74
2021/09/15 07:10:18;;;;;;;;;;;;;;;;;;2108811;27;1490;-74
2021/09/15 07:11:19;;;;;;;;;;;;;;;;;;2105825;27;1110;-74